createdAt,value
2023-04-14T00:01:05.694Z,99849.91
2023-04-14T00:04:10.619Z,99863.19
2023-04-14T00:07:13.947Z,99865.09
2023-04-14T00:10:16.454Z,99869.16
2023-04-14T00:13:18.921Z,99813.28
2023-04-14T00:16:21.974Z,99864.81
2023-04-14T00:19:24.647Z,99864.81
2023-04-14T00:22:27.202Z,99846.94
2023-04-14T00:25:29.563Z,99837.16
2023-04-14T00:28:31.983Z,99862.13
2023-04-14T00:31:34.395Z,99861.34
2023-04-14T00:34:36.788Z,99866.75
2023-04-14T00:37:40.104Z,99859.97
2023-04-14T00:40:42.461Z,99875.94
2023-04-14T00:43:44.780Z,99871.09
2023-04-14T00:46:47.595Z,99865.94
2023-04-14T00:49:51.113Z,99861.34
2023-04-14T00:52:53.885Z,99864.84
2023-04-14T00:55:56.866Z,99864.59
2023-04-14T00:59:01.586Z,99860.53
2023-04-14T01:02:04.379Z,99861.59
2023-04-14T01:05:08.261Z,99856.72
2023-04-14T01:08:10.710Z,99853.75
2023-04-14T01:11:21.941Z,99863.81
2023-04-14T01:14:51.089Z,99865.66
2023-04-14T01:18:08.335Z,99866.50
2023-04-14T01:21:14.371Z,99852.94
2023-04-14T01:24:41.693Z,99866.50
2023-04-14T01:27:58.821Z,99864.63
2023-04-14T01:31:28.560Z,99864.31
2023-04-14T01:34:46.157Z,99856.72
2023-04-14T01:37:52.902Z,99858.63
2023-04-14T01:40:58.602Z,99852.94
2023-04-14T01:44:02.538Z,99854.81
2023-04-14T01:47:07.218Z,99856.16
2023-04-14T01:50:12.348Z,99853.22
2023-04-14T01:53:17.826Z,99864.31
2023-04-14T01:56:21.490Z,99859.44
2023-04-14T01:59:25.469Z,99867.84
2023-04-14T02:02:28.405Z,99856.47
2023-04-14T02:05:31.618Z,99866.50
2023-04-14T02:08:34.908Z,99863.50
2023-04-14T02:11:37.320Z,99868.13
2023-04-14T02:14:42.032Z,99855.38
2023-04-14T02:17:45.234Z,99868.13
2023-04-14T02:20:48.541Z,99871.66
2023-04-14T02:23:50.968Z,99875.16
2023-04-14T02:27:11.342Z,99874.84
2023-04-14T02:30:15.845Z,99879.41
2023-04-14T02:33:22.868Z,99876.44
2023-04-14T02:36:32.637Z,99872.94
2023-04-14T02:39:41.416Z,99871.78
2023-04-14T02:42:46.865Z,99875.59
2023-04-14T02:45:51.658Z,99880.44
2023-04-14T02:48:55.342Z,99884.19
2023-04-14T02:51:58.549Z,99885.56
2023-04-14T02:55:02.413Z,99885.88
2023-04-14T02:58:05.459Z,99882.16
2023-04-14T03:01:11.756Z,99883.28
2023-04-14T03:04:16.147Z,99892.75
2023-04-14T03:07:20.480Z,99888.72
2023-04-14T03:10:24.968Z,99894.41
2023-04-14T03:13:29.054Z,99887.63
2023-04-14T03:16:32.699Z,99883.00
2023-04-14T03:19:36.524Z,99895.75
2023-04-14T03:22:41.824Z,99898.75
2023-04-14T03:25:48.219Z,99891.72
2023-04-14T03:28:58.040Z,99895.50
2023-04-14T03:32:01.880Z,99894.69
2023-04-14T03:35:05.039Z,99906.91
2023-04-14T03:38:09.920Z,99899.88
2023-04-14T03:41:12.722Z,99902.56
2023-04-14T03:44:17.616Z,99906.09
2023-04-14T03:47:31.563Z,99903.94
2023-04-14T03:50:37.433Z,99908.00
2023-04-14T03:53:41.985Z,99908.53
2023-04-14T03:56:46.360Z,99915.88
2023-04-14T03:59:50.780Z,99902.81
2023-04-14T04:02:58.150Z,99917.78
2023-04-14T04:06:00.854Z,99912.34
2023-04-14T04:09:04.006Z,99917.22
2023-04-14T04:12:07.452Z,99909.91
2023-04-14T04:15:10.846Z,99919.41
2023-04-14T04:18:17.485Z,99925.09
2023-04-14T04:21:21.304Z,99920.22
2023-04-14T04:24:26.630Z,99926.72
2023-04-14T04:27:29.409Z,99915.88
2023-04-14T04:30:41.612Z,99914.00
2023-04-14T04:33:46.786Z,99901.75
2023-04-14T04:36:50.656Z,99924.56
2023-04-14T04:39:53.305Z,99924.03
2023-04-14T04:42:55.945Z,99912.13
2023-04-14T04:46:17.111Z,99925.94
2023-04-14T04:49:20.931Z,99914.75
2023-04-14T04:52:23.339Z,99921.72
2023-04-14T04:55:26.347Z,99925.63
2023-04-14T04:58:28.783Z,99928.81
2023-04-14T05:01:31.346Z,99940.03
2023-04-14T05:04:33.918Z,99933.19
2023-04-14T05:07:36.375Z,99932.50
2023-04-14T05:10:38.800Z,99936.13
2023-04-14T05:13:41.531Z,99942.53
2023-04-14T05:16:43.895Z,99941.81
2023-04-14T05:19:46.439Z,99942.22
2023-04-14T05:22:48.774Z,99940.25
2023-04-14T05:25:51.383Z,99940.09
2023-04-14T05:28:53.891Z,99935.00
2023-04-14T05:31:56.235Z,99939.66
2023-04-14T05:34:58.613Z,99941.72
2023-04-14T05:38:00.964Z,99952.06
2023-04-14T05:41:03.386Z,99951.09
2023-04-14T05:44:05.807Z,99945.50
2023-04-14T05:47:08.272Z,99950.53
2023-04-14T05:50:11.318Z,99948.59
2023-04-14T05:53:13.938Z,99936.44
2023-04-14T05:56:16.398Z,99948.22
2023-04-14T05:59:18.770Z,99941.94
2023-04-14T06:02:21.235Z,99936.16
2023-04-14T06:05:24.558Z,99926.34
2023-04-14T06:08:26.967Z,99934.56
2023-04-14T06:11:29.259Z,99935.09
2023-04-14T06:14:31.625Z,99933.38
2023-04-14T06:17:35.577Z,99930.72
2023-04-14T06:20:38.074Z,99918.94
2023-04-14T06:23:40.704Z,99928.63
2023-04-14T06:26:43.287Z,99925.81
2023-04-14T06:29:45.653Z,99933.81
2023-04-14T06:32:51.605Z,99940.75
2023-04-14T06:35:54.922Z,99944.41
2023-04-14T06:38:58.004Z,99939.28
2023-04-14T06:42:01.037Z,99946.28
2023-04-14T06:45:04.754Z,99949.69
2023-04-14T06:48:08.051Z,99938.25
2023-04-14T06:51:12.419Z,99932.63
2023-04-14T06:54:14.797Z,99938.72
2023-04-14T06:57:17.122Z,99938.47
2023-04-14T07:00:19.709Z,99939.41
2023-04-14T07:03:22.064Z,99937.59
2023-04-14T07:06:25.052Z,99933.94
2023-04-14T07:09:28.450Z,99937.66
2023-04-14T07:12:30.776Z,99937.75
2023-04-14T07:15:33.269Z,99927.81
2023-04-14T07:18:36.624Z,99920.47
2023-04-14T07:21:38.931Z,99944.72
2023-04-14T07:24:41.647Z,99943.81
2023-04-14T07:27:56.201Z,99930.88
2023-04-14T07:31:09.427Z,99945.56
2023-04-14T07:34:11.811Z,99944.38
2023-04-14T07:37:14.128Z,99952.63
2023-04-14T07:40:17.118Z,99944.91
2023-04-14T07:43:19.441Z,99945.28
2023-04-14T07:46:22.255Z,99952.75
2023-04-14T07:49:24.690Z,99954.09
2023-04-14T07:52:27.111Z,99941.41
2023-04-14T07:55:29.537Z,99955.97
2023-04-14T07:58:31.932Z,99960.38
2023-04-14T08:01:34.260Z,99960.41
2023-04-14T08:04:37.067Z,99956.19
2023-04-14T08:07:39.672Z,99963.38
2023-04-14T08:10:42.720Z,99963.38
2023-04-14T08:13:46.222Z,99946.22
2023-04-14T08:16:48.746Z,99963.41
2023-04-14T08:19:51.328Z,99965.66
2023-04-14T08:22:53.911Z,99948.78
2023-04-14T08:25:57.870Z,99949.31
2023-04-14T08:29:00.401Z,99945.50
2023-04-14T08:32:02.981Z,99945.06
2023-04-14T08:35:39.930Z,99939.41
2023-04-14T08:38:29.623Z,99941.75
2023-04-14T08:41:34.562Z,99946.13
2023-04-14T08:44:37.490Z,99935.56
2023-04-14T08:47:41.401Z,99948.91
2023-04-14T08:50:56.898Z,99928.66
2023-04-14T08:53:59.997Z,99929.25
2023-04-14T08:57:03.734Z,99931.72
2023-04-14T09:00:07.078Z,99923.91
2023-04-14T09:03:09.912Z,99924.50
2023-04-14T09:06:13.377Z,99925.81
2023-04-14T09:09:16.042Z,99936.06
2023-04-14T09:12:18.723Z,99931.50
2023-04-14T09:15:21.853Z,99920.25
2023-04-14T09:18:25.762Z,99934.34
2023-04-14T09:21:51.630Z,99924.19
2023-04-14T09:24:53.404Z,99921.47
2023-04-14T09:27:55.929Z,99933.88
2023-04-14T09:30:58.479Z,99928.47
2023-04-14T09:34:01.262Z,99897.72
2023-04-14T09:37:08.065Z,99925.94
2023-04-14T09:40:12.034Z,99922.16
2023-04-14T09:43:26.028Z,99909.56
2023-04-14T09:46:28.464Z,99904.31
2023-04-14T09:49:31.196Z,99922.19
2023-04-14T09:52:41.501Z,99934.19
2023-04-14T09:55:46.406Z,99926.88
2023-04-14T09:58:50.541Z,99919.81
2023-04-14T10:01:52.983Z,99928.31
2023-04-14T10:05:05.529Z,99927.69
2023-04-14T10:08:07.940Z,99934.22
2023-04-14T10:11:23.116Z,99927.25
2023-04-14T10:14:25.809Z,99928.84
2023-04-14T10:17:29.916Z,99930.53
2023-04-14T10:20:34.020Z,99929.16
2023-04-14T10:23:41.451Z,99931.16
2023-04-14T10:26:47.300Z,99934.84
2023-04-14T10:29:49.893Z,99943.53
2023-04-14T10:32:52.466Z,99938.94
2023-04-14T10:36:01.990Z,99934.03
2023-04-14T10:39:05.859Z,99931.22
2023-04-14T10:42:08.152Z,99933.69
2023-04-14T10:45:12.871Z,99930.59
2023-04-14T10:48:15.306Z,99929.53
2023-04-14T10:51:18.575Z,99935.41
2023-04-14T10:54:21.257Z,99935.19
2023-04-14T10:57:25.029Z,99944.63
2023-04-14T11:00:30.190Z,99940.66
2023-04-14T11:03:32.798Z,99932.84
2023-04-14T11:06:47.585Z,99945.00
2023-04-14T11:09:49.852Z,99940.06
2023-04-14T11:12:59.392Z,99932.84
2023-04-14T11:16:01.632Z,99933.66
2023-04-14T11:19:04.049Z,99938.38
2023-04-14T11:22:06.934Z,99930.66
2023-04-14T11:25:12.676Z,99924.88
2023-04-14T11:28:15.164Z,99931.56
2023-04-14T11:31:19.299Z,99920.41
2023-04-14T11:34:28.453Z,99927.09
2023-04-14T11:37:30.820Z,99912.81
2023-04-14T11:40:35.977Z,99918.28
2023-04-14T11:43:39.225Z,99907.09
2023-04-14T11:46:41.787Z,99912.78
2023-04-14T11:49:44.318Z,99898.09
2023-04-14T11:52:47.753Z,99904.19
2023-04-14T11:55:52.045Z,99894.88
2023-04-14T11:59:05.479Z,99899.00
2023-04-14T12:02:12.522Z,99896.00
2023-04-14T12:05:21.201Z,99879.31
2023-04-14T12:08:24.249Z,99883.50
2023-04-14T12:11:26.621Z,99886.38
2023-04-14T12:14:29.041Z,99881.28
2023-04-14T12:17:31.794Z,99886.69
2023-04-14T12:20:56.370Z,99873.84
2023-04-14T12:23:58.956Z,99867.59
2023-04-14T12:27:02.128Z,99867.75
2023-04-14T12:30:09.567Z,99861.78
2023-04-14T12:33:12.723Z,99857.19
2023-04-14T12:36:15.801Z,99848.06
2023-04-14T12:39:18.177Z,99850.44
2023-04-14T12:42:20.736Z,99829.16
2023-04-14T12:45:23.019Z,99844.34
2023-04-14T12:48:46.148Z,99839.84
2023-04-14T12:51:48.534Z,99850.97
2023-04-14T12:54:54.311Z,99840.81
2023-04-14T12:57:59.959Z,99838.56
2023-04-14T13:01:02.594Z,99839.66
2023-04-14T13:04:06.676Z,99828.22
2023-04-14T13:07:09.296Z,99827.69
2023-04-14T13:10:12.091Z,99836.28
2023-04-14T13:13:14.415Z,99824.97
2023-04-14T13:16:18.561Z,99822.41
2023-04-14T13:19:23.303Z,99825.81
2023-04-14T13:22:25.911Z,99822.44
2023-04-14T13:25:28.235Z,99832.16
2023-04-14T13:28:30.645Z,99812.81
2023-04-14T13:31:33.144Z,99813.81
2023-04-14T13:34:35.420Z,99807.41
2023-04-14T13:37:38.686Z,99824.91
2023-04-14T13:40:41.047Z,99808.69
2023-04-14T13:43:43.412Z,99808.16
2023-04-14T13:46:45.972Z,99808.75
2023-04-14T13:49:48.455Z,99803.47
2023-04-14T13:52:50.859Z,99801.97
2023-04-14T13:55:53.253Z,99798.03
2023-04-14T13:58:55.725Z,99792.59
2023-04-14T14:01:58.292Z,99790.78
2023-04-14T14:05:00.899Z,99783.91
2023-04-14T14:08:03.441Z,99796.13
2023-04-14T14:11:10.798Z,99795.81
2023-04-14T14:14:13.111Z,99787.78
2023-04-14T14:17:15.399Z,99802.03
2023-04-14T14:20:17.848Z,99794.25
2023-04-14T14:23:20.249Z,99794.81
2023-04-14T14:26:22.568Z,99798.97
2023-04-14T14:29:24.932Z,99798.03
2023-04-14T14:32:27.419Z,99788.84
2023-04-14T14:35:29.774Z,99792.44
2023-04-14T14:38:32.534Z,99791.91
2023-04-14T14:41:35.024Z,99784.44
2023-04-14T14:44:38.475Z,99788.56
2023-04-14T14:47:41.548Z,99783.13
2023-04-14T14:50:43.930Z,99775.47
2023-04-14T14:53:46.216Z,99780.38
2023-04-14T14:56:48.522Z,99783.59
2023-04-14T14:59:50.938Z,99785.72
2023-04-14T15:02:53.619Z,99785.41
2023-04-14T15:05:56.368Z,99775.84
2023-04-14T15:08:58.944Z,99773.03
2023-04-14T15:12:01.324Z,99770.69
2023-04-14T15:15:05.216Z,99771.31
2023-04-14T15:18:07.821Z,99775.28
2023-04-14T15:21:10.122Z,99777.41
2023-04-14T15:24:12.600Z,99783.16
2023-04-14T15:27:14.952Z,99775.97
2023-04-14T15:30:17.314Z,99791.59
2023-04-14T15:33:19.672Z,99790.09
2023-04-14T15:36:22.479Z,99792.59
2023-04-14T15:39:24.871Z,99790.84
2023-04-14T15:42:27.483Z,99803.47
2023-04-14T15:45:29.861Z,99795.25
2023-04-14T15:48:32.129Z,99785.09
2023-04-14T15:51:34.486Z,99797.72
2023-04-14T15:54:37.413Z,99803.00
2023-04-14T15:57:39.848Z,99799.97
2023-04-14T16:00:42.704Z,99802.06
2023-04-14T16:03:45.298Z,99798.81
2023-04-14T16:06:47.871Z,99796.41
2023-04-14T16:09:50.274Z,99812.84
2023-04-14T16:12:52.831Z,99800.78
2023-04-14T16:15:55.436Z,99808.31
2023-04-14T16:18:57.821Z,99816.22
2023-04-14T16:22:00.728Z,99809.31
2023-04-14T16:25:04.622Z,99813.44
2023-04-14T16:28:06.958Z,99805.16
2023-04-14T16:31:09.328Z,99809.97
2023-04-14T16:34:11.922Z,99808.59
2023-04-14T16:37:14.434Z,99817.91
2023-04-14T16:40:16.926Z,99809.41
2023-04-14T16:43:19.262Z,99819.56
2023-04-14T16:46:22.140Z,99824.34
2023-04-14T16:49:25.606Z,99815.34
2023-04-14T16:52:27.882Z,99819.03
2023-04-14T16:55:30.115Z,99819.19
2023-04-14T16:58:32.600Z,99819.72
2023-04-14T17:01:35.130Z,99815.53
2023-04-14T17:04:37.750Z,99825.97
2023-04-14T17:07:40.885Z,99823.03
2023-04-14T17:10:44.020Z,99818.38
2023-04-14T17:13:46.406Z,99827.16
2023-04-14T17:16:48.794Z,99825.78
2023-04-14T17:19:51.565Z,99830.81
2023-04-14T17:22:54.549Z,99833.06
2023-04-14T17:25:57.811Z,99839.13
2023-04-14T17:29:00.491Z,99842.47
2023-04-14T17:32:03.173Z,99840.69
2023-04-14T17:35:06.303Z,99847.44
2023-04-14T17:38:08.698Z,99849.72
2023-04-14T17:41:12.744Z,99859.84
2023-04-14T17:44:15.705Z,99853.06
2023-04-14T17:47:21.413Z,99852.41
2023-04-14T17:50:24.893Z,99861.81
2023-04-14T17:53:27.689Z,99854.94
2023-04-14T17:56:31.473Z,99864.88
2023-04-14T17:59:33.873Z,99868.41
2023-04-14T18:02:38.517Z,99878.63
2023-04-14T18:05:41.266Z,99883.28
2023-04-14T18:08:43.761Z,99886.06
2023-04-14T18:11:46.427Z,99889.91
2023-04-14T18:14:53.364Z,99891.38
2023-04-14T18:17:56.436Z,99895.81
2023-04-14T18:20:59.100Z,99896.13
2023-04-14T18:30:12.842Z,99906.09
2023-04-14T18:33:15.110Z,99905.47
2023-04-14T18:36:17.647Z,99907.34
2023-04-14T18:39:20.053Z,99887.13
2023-04-14T18:42:23.023Z,99911.78
2023-04-14T18:45:25.424Z,99914.81
2023-04-14T18:48:28.826Z,99924.97
2023-04-14T18:51:31.724Z,99927.84
2023-04-14T18:54:34.071Z,99930.22
2023-04-14T18:57:36.408Z,99936.81
2023-04-14T19:00:39.958Z,99932.69
2023-04-14T19:03:42.358Z,99929.69
2023-04-14T19:06:44.698Z,99930.41
2023-04-14T19:09:47.133Z,99922.34
2023-04-14T19:12:49.653Z,99931.41
2023-04-14T19:15:53.052Z,99930.66
2023-04-14T19:18:55.741Z,99933.47
2023-04-14T19:21:58.144Z,99941.47
2023-04-14T19:25:01.056Z,99909.50
2023-04-14T19:28:03.381Z,99940.97
2023-04-14T19:31:06.370Z,99936.72
2023-04-14T19:34:09.001Z,99927.13
2023-04-14T19:37:12.061Z,99937.91
2023-04-14T19:40:14.680Z,99937.09
2023-04-14T19:43:18.707Z,99946.16
2023-04-14T19:46:21.129Z,99942.63
2023-04-14T19:49:23.876Z,99925.28
2023-04-14T19:52:27.186Z,99942.94
2023-04-14T19:55:30.185Z,99945.97
2023-04-14T19:58:33.004Z,99942.72
2023-04-14T20:01:35.520Z,99948.19
2023-04-14T20:04:38.115Z,99949.31
2023-04-14T20:07:40.849Z,99952.06
2023-04-14T20:10:43.964Z,99939.97
2023-04-14T20:13:46.283Z,99954.78
2023-04-14T20:16:48.890Z,99953.94
2023-04-14T20:19:51.409Z,99944.66
2023-04-14T20:22:55.651Z,99943.34
2023-04-14T20:25:58.081Z,99944.97
2023-04-14T20:29:00.626Z,99948.47
2023-04-14T20:32:04.423Z,99949.91
2023-04-14T20:35:06.981Z,99945.03
2023-04-14T20:38:09.562Z,99929.69
2023-04-14T20:41:12.368Z,99940.78
2023-04-14T20:44:14.850Z,99939.97
2023-04-14T20:47:18.249Z,99939.88
2023-04-14T20:50:20.571Z,99941.28
2023-04-14T20:53:26.755Z,99941.53
2023-04-14T20:56:30.975Z,99938.91
2023-04-14T20:59:33.540Z,99943.56
2023-04-14T21:02:36.289Z,99934.56
2023-04-14T21:05:38.724Z,99938.44
2023-04-14T21:08:41.112Z,99942.75
2023-04-14T21:11:43.499Z,99945.16
2023-04-14T21:15:40.330Z,99950.03
2023-04-14T21:18:09.813Z,99945.78
2023-04-14T21:21:13.091Z,99949.00
2023-04-14T21:24:15.462Z,99946.81
2023-04-14T21:27:17.919Z,99944.63
2023-04-14T21:30:20.325Z,99925.59
2023-04-14T21:33:22.720Z,99944.84
2023-04-14T21:36:25.240Z,99950.66
2023-04-14T21:39:29.908Z,99944.88
2023-04-14T21:42:32.535Z,99946.63
2023-04-14T21:45:34.883Z,99952.06
2023-04-14T21:48:37.561Z,99944.84
2023-04-14T21:51:39.817Z,99945.31
2023-04-14T21:54:44.744Z,99944.88
2023-04-14T21:57:49.685Z,99949.06
2023-04-14T22:00:53.783Z,99948.19
2023-04-14T22:03:56.386Z,99954.09
2023-04-14T22:06:58.799Z,99945.56
2023-04-14T22:10:02.276Z,99949.44
2023-04-14T22:13:04.671Z,99950.03
2023-04-14T22:16:07.509Z,99949.00
2023-04-14T22:19:10.475Z,99943.81
2023-04-14T22:22:12.796Z,99930.25
2023-04-14T22:25:15.395Z,99941.84
2023-04-14T22:28:17.739Z,99948.28
2023-04-14T22:31:20.241Z,99943.47
2023-04-14T22:34:22.736Z,99934.78
2023-04-14T22:37:25.114Z,99936.34
2023-04-14T22:40:27.556Z,99930.66
2023-04-14T22:43:30.219Z,99923.59
2023-04-14T22:46:33.852Z,99928.63
2023-04-14T22:49:36.495Z,99920.63
2023-04-14T22:52:38.797Z,99932.63
2023-04-14T22:55:41.111Z,99930.44
2023-04-14T22:58:43.663Z,99922.38
2023-04-14T23:01:46.076Z,99930.03
2023-04-14T23:04:48.550Z,99937.34
2023-04-14T23:07:51.219Z,99933.28
2023-04-14T23:10:54.252Z,99921.38
2023-04-14T23:13:56.838Z,99939.84
2023-04-14T23:17:02.374Z,99938.72
2023-04-14T23:20:04.972Z,99928.88
2023-04-14T23:23:12.473Z,99929.53
2023-04-14T23:26:14.866Z,99935.44
2023-04-14T23:29:17.127Z,99932.94
2023-04-14T23:32:19.515Z,99939.97
2023-04-14T23:35:21.888Z,99923.09
2023-04-14T23:38:24.313Z,99935.81
2023-04-14T23:41:26.744Z,99934.13
2023-04-14T23:44:29.205Z,99925.41
2023-04-14T23:47:32.124Z,99926.91
2023-04-14T23:51:00.273Z,99926.06
2023-04-14T23:53:59.511Z,99920.06
2023-04-14T23:57:01.890Z,99921.31
